createdAt,value
2022-08-26T00:01:53.879Z,35.77
2022-08-26T00:04:21.995Z,35.89
2022-08-26T00:06:49.397Z,35.67
2022-08-26T00:09:16.984Z,35.58
2022-08-26T00:11:45.457Z,35.75
2022-08-26T00:14:13.972Z,35.62
2022-08-26T00:16:48.093Z,35.54
2022-08-26T00:19:18.130Z,35.60
2022-08-26T00:21:46.627Z,35.45
2022-08-26T00:24:16.535Z,35.60
2022-08-26T00:26:44.805Z,35.68
2022-08-26T00:29:12.549Z,35.60
2022-08-26T00:31:40.818Z,35.67
2022-08-26T00:34:09.557Z,35.58
2022-08-26T00:36:39.774Z,35.52
2022-08-26T00:39:08.846Z,35.49
2022-08-26T00:41:38.271Z,35.32
2022-08-26T00:44:06.932Z,35.36
2022-08-26T00:46:38.568Z,35.49
2022-08-26T00:49:22.777Z,35.53
2022-08-26T00:51:52.425Z,35.21
2022-08-26T00:54:21.365Z,35.12
2022-08-26T00:57:16.400Z,35.26
2022-08-26T01:00:04.212Z,35.11
2022-08-26T01:02:32.337Z,34.99
2022-08-26T01:05:01.781Z,35.03
2022-08-26T01:07:31.879Z,35.09
2022-08-26T01:10:03.894Z,35.14
2022-08-26T01:12:33.640Z,35.15
2022-08-26T01:15:02.229Z,34.92
2022-08-26T01:17:29.531Z,35.14
2022-08-26T01:20:04.038Z,35.04
2022-08-26T01:22:43.629Z,34.86
2022-08-26T01:25:11.316Z,34.93
2022-08-26T01:27:38.886Z,34.82
2022-08-26T01:30:06.392Z,34.78
2022-08-26T01:32:34.538Z,34.78
2022-08-26T01:35:02.147Z,34.71
2022-08-26T01:37:34.979Z,34.78
2022-08-26T01:40:02.768Z,35.03
2022-08-26T01:42:30.074Z,34.80
2022-08-26T01:45:09.963Z,34.72
2022-08-26T01:47:38.000Z,34.63
2022-08-26T01:50:07.700Z,34.58
2022-08-26T01:52:37.458Z,34.71
2022-08-26T01:55:05.347Z,34.60
2022-08-26T01:57:34.796Z,34.92
2022-08-26T02:00:02.857Z,34.60
2022-08-26T02:02:40.891Z,34.49
2022-08-26T02:05:14.565Z,34.49
2022-08-26T02:07:42.175Z,34.62
2022-08-26T02:10:09.703Z,34.47
2022-08-26T02:12:37.436Z,34.45
2022-08-26T02:15:06.646Z,34.56
2022-08-26T02:17:37.692Z,34.37
2022-08-26T02:20:06.670Z,34.53
2022-08-26T02:22:41.606Z,34.54
2022-08-26T02:25:32.563Z,34.34
2022-08-26T02:28:00.228Z,34.30
2022-08-26T02:30:29.954Z,34.48
2022-08-26T02:32:58.835Z,34.22
2022-08-26T02:35:26.175Z,34.38
2022-08-26T02:37:54.137Z,34.30
2022-08-26T02:40:23.169Z,34.20
2022-08-26T02:42:53.062Z,34.22
2022-08-26T02:45:23.834Z,34.19
2022-08-26T02:47:51.591Z,34.34
2022-08-26T02:50:20.228Z,34.29
2022-08-26T02:52:48.543Z,34.29
2022-08-26T02:55:16.181Z,34.20
2022-08-26T02:57:43.617Z,34.12
2022-08-26T03:00:12.558Z,34.17
2022-08-26T03:02:40.306Z,34.36
2022-08-26T03:05:07.900Z,34.31
2022-08-26T03:07:35.446Z,34.25
2022-08-26T03:10:08.768Z,34.38
2022-08-26T03:12:37.137Z,34.23
2022-08-26T03:15:16.430Z,34.17
2022-08-26T03:17:46.445Z,34.21
2022-08-26T03:20:15.568Z,34.19
2022-08-26T03:22:45.223Z,34.21
2022-08-26T03:25:14.964Z,34.21
2022-08-26T03:27:43.026Z,34.08
2022-08-26T03:30:29.723Z,34.14
2022-08-26T03:32:57.684Z,34.07
2022-08-26T03:35:25.839Z,34.31
2022-08-26T03:37:53.618Z,34.04
2022-08-26T03:40:21.138Z,34.05
2022-08-26T03:42:50.383Z,34.03
2022-08-26T03:45:18.481Z,33.88
2022-08-26T03:47:46.735Z,34.08
2022-08-26T03:50:15.959Z,34.06
2022-08-26T03:52:44.146Z,34.12
2022-08-26T03:55:11.557Z,34.12
2022-08-26T03:57:39.395Z,34.10
2022-08-26T04:00:08.420Z,34.07
2022-08-26T04:02:35.972Z,33.99
2022-08-26T04:05:03.240Z,33.94
2022-08-26T04:07:31.986Z,33.92
2022-08-26T04:10:00.710Z,33.95
2022-08-26T04:12:27.967Z,34.01
2022-08-26T04:14:55.525Z,33.93
2022-08-26T04:17:26.324Z,33.87
2022-08-26T04:19:53.830Z,34.01
2022-08-26T04:22:24.229Z,34.10
2022-08-26T04:24:52.822Z,34.10
2022-08-26T04:27:20.530Z,34.19
2022-08-26T04:29:49.805Z,34.03
2022-08-26T04:32:18.828Z,34.16
2022-08-26T04:34:46.312Z,34.16
2022-08-26T04:37:13.741Z,34.22
2022-08-26T04:39:40.976Z,34.31
2022-08-26T04:42:08.466Z,34.49
2022-08-26T04:44:36.646Z,34.29
2022-08-26T04:47:04.749Z,34.33
2022-08-26T04:49:35.471Z,34.53
2022-08-26T04:52:03.854Z,34.71
2022-08-26T04:54:32.193Z,34.94
2022-08-26T04:56:59.827Z,35.20
2022-08-26T04:59:27.157Z,35.12
2022-08-26T05:01:59.733Z,34.99
2022-08-26T05:04:27.243Z,35.05
2022-08-26T05:06:59.241Z,35.12
2022-08-26T05:09:30.522Z,34.86
2022-08-26T05:11:57.836Z,35.05
2022-08-26T05:14:25.530Z,35.01
2022-08-26T05:16:54.032Z,34.90
2022-08-26T05:19:21.377Z,35.01
2022-08-26T05:21:49.402Z,34.93
2022-08-26T05:24:17.778Z,35.22
2022-08-26T05:26:45.490Z,35.17
2022-08-26T05:29:13.077Z,35.08
2022-08-26T05:31:40.304Z,34.92
2022-08-26T05:34:08.591Z,34.92
2022-08-26T05:36:36.961Z,34.97
2022-08-26T05:39:05.101Z,35.01
2022-08-26T05:41:36.637Z,35.22
2022-08-26T05:44:07.961Z,35.39
2022-08-26T05:46:36.689Z,35.29
2022-08-26T05:49:05.033Z,35.46
2022-08-26T05:51:33.658Z,35.57
2022-08-26T05:54:04.060Z,35.54
2022-08-26T05:56:31.649Z,35.49
2022-08-26T05:58:59.769Z,35.20
2022-08-26T06:01:27.992Z,35.22
2022-08-26T06:03:56.875Z,35.40
2022-08-26T06:06:31.408Z,35.50
2022-08-26T06:09:00.024Z,35.31
2022-08-26T06:11:29.187Z,35.60
2022-08-26T06:14:03.124Z,35.26
2022-08-26T06:16:31.954Z,35.36
2022-08-26T06:18:59.392Z,35.67
2022-08-26T06:21:28.561Z,35.58
2022-08-26T06:24:15.781Z,35.37
2022-08-26T06:26:47.024Z,35.45
2022-08-26T06:29:24.362Z,35.75
2022-08-26T06:31:53.172Z,35.79
2022-08-26T06:34:20.516Z,35.71
2022-08-26T06:36:49.317Z,35.71
2022-08-26T06:39:20.617Z,35.53
2022-08-26T06:41:48.172Z,35.45
2022-08-26T06:44:18.500Z,35.71
2022-08-26T06:46:46.247Z,35.64
2022-08-26T06:49:17.801Z,35.68
2022-08-26T06:51:45.031Z,35.65
2022-08-26T06:54:12.611Z,35.55
2022-08-26T06:56:42.742Z,35.90
2022-08-26T06:59:11.213Z,35.95
2022-08-26T07:01:43.024Z,35.44
2022-08-26T07:04:12.437Z,35.56
2022-08-26T07:06:41.024Z,35.60
2022-08-26T07:09:12.605Z,35.84
2022-08-26T07:11:41.898Z,35.99
2022-08-26T07:14:09.165Z,36.05
2022-08-26T07:16:36.471Z,36.25
2022-08-26T07:19:10.862Z,36.11
2022-08-26T07:21:40.449Z,36.56
2022-08-26T07:24:08.470Z,36.48
2022-08-26T07:26:39.145Z,36.41
2022-08-26T07:29:12.569Z,36.82
2022-08-26T07:31:42.822Z,36.55
2022-08-26T07:34:10.967Z,36.86
2022-08-26T07:36:38.286Z,36.84
2022-08-26T07:39:06.270Z,36.94
2022-08-26T07:41:34.006Z,37.30
2022-08-26T07:44:01.476Z,37.27
2022-08-26T07:46:30.202Z,37.06
2022-08-26T07:48:58.560Z,36.65
2022-08-26T07:51:26.363Z,37.17
2022-08-26T07:53:54.423Z,37.51
2022-08-26T07:56:23.355Z,37.67
2022-08-26T07:58:51.990Z,37.69
2022-08-26T08:01:23.997Z,37.47
2022-08-26T08:03:52.463Z,37.06
2022-08-26T08:06:20.585Z,37.44
2022-08-26T08:08:48.337Z,37.00
2022-08-26T08:11:22.323Z,37.21
2022-08-26T08:13:56.153Z,37.37
2022-08-26T08:16:26.006Z,37.60
2022-08-26T08:18:53.727Z,37.70
2022-08-26T08:21:23.800Z,37.58
2022-08-26T08:23:56.180Z,37.58
2022-08-26T08:26:24.541Z,37.77
2022-08-26T08:28:54.496Z,37.78
2022-08-26T08:31:45.078Z,37.93
2022-08-26T08:34:10.713Z,37.41
2022-08-26T08:36:38.011Z,37.49
2022-08-26T08:39:06.508Z,37.48
2022-08-26T08:41:39.827Z,38.02
2022-08-26T08:44:15.566Z,37.87
2022-08-26T08:46:44.589Z,37.67
2022-08-26T08:49:13.947Z,37.91
2022-08-26T08:51:45.822Z,37.83
2022-08-26T08:54:14.244Z,38.25
2022-08-26T08:56:44.711Z,37.77
2022-08-26T08:59:17.081Z,37.87
2022-08-26T09:02:10.221Z,37.46
2022-08-26T09:04:54.303Z,37.72
2022-08-26T09:07:36.540Z,37.99
2022-08-26T09:10:13.780Z,38.11
2022-08-26T09:12:42.983Z,37.67
2022-08-26T09:15:19.308Z,37.52
2022-08-26T09:17:46.811Z,37.31
2022-08-26T09:20:14.093Z,37.67
2022-08-26T09:22:44.130Z,37.67
2022-08-26T09:25:13.076Z,37.50
2022-08-26T09:27:43.120Z,38.09
2022-08-26T09:30:12.429Z,37.87
2022-08-26T09:32:40.535Z,37.58
2022-08-26T09:35:10.988Z,38.01
2022-08-26T09:40:27.484Z,38.02
2022-08-26T09:43:13.589Z,38.10
2022-08-26T09:45:50.192Z,37.93
2022-08-26T09:48:47.099Z,37.83
2022-08-26T09:51:24.911Z,37.75
2022-08-26T09:53:56.700Z,37.76
2022-08-26T09:56:25.939Z,37.69
2022-08-26T09:58:55.860Z,37.58
2022-08-26T10:01:23.518Z,37.71
2022-08-26T10:03:51.642Z,37.75
2022-08-26T10:06:21.194Z,37.52
2022-08-26T10:08:54.151Z,37.46
2022-08-26T10:11:33.551Z,37.52
2022-08-26T10:14:25.034Z,37.33
2022-08-26T10:16:56.531Z,37.51
2022-08-26T10:19:55.508Z,37.55
2022-08-26T10:22:27.031Z,37.86
2022-08-26T10:24:57.052Z,37.47
2022-08-26T10:27:31.725Z,37.53
2022-08-26T10:30:04.304Z,37.14
2022-08-26T10:32:35.354Z,37.19
2022-08-26T10:35:10.141Z,37.17
2022-08-26T10:37:39.418Z,37.34
2022-08-26T10:40:12.825Z,37.36
2022-08-26T10:42:46.625Z,37.33
2022-08-26T10:45:20.209Z,37.17
2022-08-26T10:47:59.866Z,37.07
2022-08-26T10:50:32.323Z,37.09
2022-08-26T10:53:05.706Z,37.37
2022-08-26T10:55:40.904Z,37.38
2022-08-26T10:58:11.624Z,37.21
2022-08-26T11:01:02.529Z,37.11
2022-08-26T11:03:46.877Z,37.37
2022-08-26T11:06:20.419Z,37.14
2022-08-26T11:08:48.789Z,36.91
2022-08-26T11:11:42.731Z,37.01
2022-08-26T11:14:10.043Z,37.23
2022-08-26T11:16:43.460Z,37.03
2022-08-26T11:19:50.881Z,37.06
2022-08-26T11:22:24.676Z,37.25
2022-08-26T11:24:55.619Z,37.30
2022-08-26T11:27:23.535Z,37.13
2022-08-26T11:29:57.421Z,37.46
2022-08-26T11:32:34.785Z,37.02
2022-08-26T11:35:07.079Z,37.17
2022-08-26T11:37:41.213Z,37.21
2022-08-26T11:40:11.410Z,37.04
2022-08-26T11:42:49.540Z,36.98
2022-08-26T11:45:31.380Z,36.89
2022-08-26T11:47:59.061Z,36.88
2022-08-26T11:50:27.985Z,36.80
2022-08-26T11:52:57.330Z,36.96
2022-08-26T11:55:24.681Z,36.92
2022-08-26T11:57:54.195Z,37.01
2022-08-26T12:00:23.507Z,36.90
2022-08-26T12:02:52.496Z,37.00
2022-08-26T12:05:30.874Z,36.66
2022-08-26T12:08:06.379Z,36.85
2022-08-26T12:10:34.517Z,37.03
2022-08-26T12:13:02.915Z,36.93
2022-08-26T12:15:31.747Z,36.99
2022-08-26T12:18:15.985Z,36.76
2022-08-26T12:20:48.187Z,36.84
2022-08-26T12:23:24.704Z,36.97
2022-08-26T12:25:52.841Z,36.97
2022-08-26T12:28:21.649Z,37.19
2022-08-26T12:31:01.066Z,36.92
2022-08-26T12:33:28.929Z,36.85
2022-08-26T12:35:57.036Z,37.13
2022-08-26T12:39:01.871Z,36.85
2022-08-26T12:41:50.210Z,36.71
2022-08-26T12:44:36.770Z,36.81
2022-08-26T12:47:08.472Z,36.81
2022-08-26T12:49:37.237Z,36.89
2022-08-26T12:52:05.580Z,36.53
2022-08-26T12:54:56.546Z,36.71
2022-08-26T12:57:29.545Z,36.63
2022-08-26T13:00:15.830Z,36.63
2022-08-26T13:02:46.403Z,36.79
2022-08-26T13:05:24.626Z,36.51
2022-08-26T13:08:10.825Z,36.71
2022-08-26T13:10:39.754Z,36.64
2022-08-26T13:13:07.223Z,36.68
2022-08-26T13:15:34.825Z,36.97
2022-08-26T13:18:03.477Z,36.99
2022-08-26T13:20:32.389Z,36.94
2022-08-26T13:23:00.187Z,37.34
2022-08-26T13:25:27.667Z,37.21
2022-08-26T13:27:55.425Z,37.37
2022-08-26T13:30:22.832Z,37.19
2022-08-26T13:32:52.348Z,37.21
2022-08-26T13:35:20.881Z,37.19
2022-08-26T13:37:48.362Z,37.32
2022-08-26T13:40:16.166Z,37.30
2022-08-26T13:42:49.906Z,37.59
2022-08-26T13:45:17.704Z,37.10
2022-08-26T13:47:45.011Z,36.98
2022-08-26T13:50:12.432Z,37.06
2022-08-26T13:52:39.868Z,37.01
2022-08-26T13:55:08.045Z,37.02
2022-08-26T13:57:35.364Z,37.18
2022-08-26T14:00:03.705Z,37.24
2022-08-26T14:02:36.552Z,37.12
2022-08-26T14:05:04.762Z,37.15
2022-08-26T14:07:32.592Z,37.09
2022-08-26T14:10:00.042Z,37.40
2022-08-26T14:12:27.451Z,37.15
2022-08-26T14:14:55.089Z,37.12
2022-08-26T14:17:23.273Z,37.17
2022-08-26T14:19:51.344Z,37.03
2022-08-26T14:22:19.840Z,36.99
2022-08-26T14:24:47.918Z,37.07
2022-08-26T14:27:15.318Z,36.96
2022-08-26T14:29:42.808Z,37.02
2022-08-26T14:32:17.695Z,37.10
2022-08-26T14:34:48.865Z,37.00
2022-08-26T14:37:16.337Z,37.10
2022-08-26T14:39:44.350Z,37.36
2022-08-26T14:42:15.192Z,37.36
2022-08-26T14:44:46.268Z,37.27
2022-08-26T14:47:14.003Z,37.15
2022-08-26T14:49:41.310Z,37.14
2022-08-26T14:52:08.863Z,37.19
2022-08-26T14:54:37.515Z,37.36
2022-08-26T14:57:07.272Z,37.21
2022-08-26T14:59:38.685Z,37.29
2022-08-26T15:02:07.364Z,37.07
2022-08-26T15:04:34.914Z,37.21
2022-08-26T15:07:03.390Z,37.18
2022-08-26T15:09:32.882Z,37.39
2022-08-26T15:12:00.340Z,37.27
2022-08-26T15:14:32.714Z,37.18
2022-08-26T15:17:00.719Z,37.40
2022-08-26T15:19:28.085Z,37.29
2022-08-26T15:21:55.554Z,37.22
2022-08-26T15:24:24.205Z,37.13
2022-08-26T15:26:52.036Z,37.01
2022-08-26T15:29:19.749Z,37.07
2022-08-26T15:31:47.733Z,37.15
2022-08-26T15:34:16.988Z,37.02
2022-08-26T15:36:46.479Z,37.11
2022-08-26T15:39:14.911Z,36.99
2022-08-26T15:41:42.277Z,37.08
2022-08-26T15:44:10.281Z,37.55
2022-08-26T15:46:38.713Z,37.28
2022-08-26T15:49:06.652Z,37.58
2022-08-26T15:51:45.745Z,37.40
2022-08-26T15:54:14.499Z,37.31
2022-08-26T15:56:43.495Z,37.37
2022-08-26T15:59:11.995Z,37.31
2022-08-26T16:01:39.529Z,37.45
2022-08-26T16:04:07.472Z,37.33
2022-08-26T16:06:35.944Z,37.34
2022-08-26T16:09:04.394Z,37.31
2022-08-26T16:11:31.802Z,37.38
2022-08-26T16:13:59.257Z,37.25
2022-08-26T16:16:27.150Z,37.27
2022-08-26T16:18:54.934Z,37.40
2022-08-26T16:21:24.746Z,37.34
2022-08-26T16:23:52.340Z,37.34
2022-08-26T16:26:21.889Z,37.38
2022-08-26T16:28:49.260Z,37.36
2022-08-26T16:31:16.755Z,37.41
2022-08-26T16:33:44.461Z,37.29
2022-08-26T16:36:12.389Z,37.45
2022-08-26T16:38:40.090Z,37.33
2022-08-26T16:41:07.897Z,37.21
2022-08-26T16:43:35.427Z,37.40
2022-08-26T16:46:05.509Z,37.42
2022-08-26T16:48:33.289Z,37.36
2022-08-26T16:51:00.615Z,37.34
2022-08-26T16:53:28.149Z,37.06
2022-08-26T16:55:55.643Z,36.91
2022-08-26T16:58:23.107Z,36.95
2022-08-26T17:00:50.475Z,37.12
2022-08-26T17:03:18.016Z,37.12
2022-08-26T17:05:45.301Z,37.01
2022-08-26T17:08:24.256Z,36.93
2022-08-26T17:10:58.701Z,37.11
2022-08-26T17:13:34.546Z,36.95
2022-08-26T17:16:07.636Z,37.00
2022-08-26T17:18:36.136Z,37.19
2022-08-26T17:21:04.989Z,37.46
2022-08-26T17:23:32.546Z,37.56
2022-08-26T17:26:00.005Z,37.83
2022-08-26T17:28:27.352Z,37.87
2022-08-26T17:30:56.229Z,37.57
2022-08-26T17:33:24.794Z,37.37
2022-08-26T17:35:53.223Z,37.21
2022-08-26T17:38:21.464Z,37.26
2022-08-26T17:40:51.640Z,37.40
2022-08-26T17:43:19.185Z,37.31
2022-08-26T17:45:46.878Z,37.24
2022-08-26T17:48:14.393Z,37.30
2022-08-26T17:50:43.081Z,37.32
2022-08-26T17:53:18.804Z,37.48
2022-08-26T17:55:47.166Z,37.32
2022-08-26T17:58:15.199Z,37.28
2022-08-26T18:00:47.771Z,37.42
2022-08-26T18:03:15.388Z,37.43
2022-08-26T18:05:42.897Z,37.20
2022-08-26T18:08:10.338Z,37.24
2022-08-26T18:10:37.675Z,37.23
2022-08-26T18:13:05.065Z,37.28
2022-08-26T18:15:32.427Z,37.17
2022-08-26T18:18:00.047Z,37.37
2022-08-26T18:20:27.364Z,37.39
2022-08-26T18:22:54.647Z,37.27
2022-08-26T18:25:22.083Z,37.21
2022-08-26T18:27:49.595Z,37.32
2022-08-26T18:30:20.724Z,37.31
2022-08-26T18:32:49.134Z,37.26
2022-08-26T18:35:16.947Z,37.26
2022-08-26T18:37:44.610Z,37.23
2022-08-26T18:40:13.037Z,37.54
2022-08-26T18:42:41.447Z,37.58
2022-08-26T18:45:09.617Z,37.71
2022-08-26T18:47:43.763Z,37.78
2022-08-26T18:50:11.249Z,37.97
2022-08-26T18:52:38.859Z,38.25
2022-08-26T18:55:06.369Z,38.24
2022-08-26T18:57:34.097Z,37.90
2022-08-26T19:00:01.785Z,38.17
2022-08-26T19:02:29.308Z,38.02
2022-08-26T19:04:57.971Z,38.06
2022-08-26T19:07:25.513Z,38.18
2022-08-26T19:09:54.066Z,38.10
2022-08-26T19:12:21.847Z,38.18
2022-08-26T19:14:49.267Z,38.33
2022-08-26T19:17:16.645Z,38.50
2022-08-26T19:19:43.875Z,38.31
2022-08-26T19:22:13.059Z,38.50
2022-08-26T19:24:40.436Z,38.37
2022-08-26T19:27:10.631Z,38.35
2022-08-26T19:29:40.528Z,38.48
2022-08-26T19:32:08.558Z,38.52
2022-08-26T19:34:36.449Z,38.45
2022-08-26T19:37:03.745Z,38.57
2022-08-26T19:39:31.505Z,38.38
2022-08-26T19:42:00.407Z,38.61
2022-08-26T19:44:46.078Z,38.39
2022-08-26T19:47:14.107Z,38.54
2022-08-26T19:49:41.549Z,38.41
2022-08-26T19:52:09.056Z,38.41
2022-08-26T19:54:36.765Z,38.49
2022-08-26T19:57:05.116Z,38.26
2022-08-26T19:59:33.295Z,38.02
2022-08-26T20:02:01.988Z,38.20
2022-08-26T20:04:30.288Z,38.34
2022-08-26T20:07:00.468Z,38.24
2022-08-26T20:09:32.695Z,38.39
2022-08-26T20:12:00.615Z,38.21
2022-08-26T20:14:27.869Z,38.08
2022-08-26T20:16:55.673Z,38.04
2022-08-26T20:19:41.812Z,37.79
2022-08-26T20:22:09.250Z,37.85
2022-08-26T20:24:37.131Z,37.88
2022-08-26T20:27:07.724Z,37.85
2022-08-26T20:29:36.343Z,37.81
2022-08-26T20:32:06.181Z,37.99
2022-08-26T20:34:34.098Z,38.09
2022-08-26T20:37:02.185Z,38.04
2022-08-26T20:39:30.001Z,38.06
2022-08-26T20:41:57.858Z,37.93
2022-08-26T20:44:25.799Z,38.02
2022-08-26T20:46:53.227Z,37.77
2022-08-26T20:49:20.981Z,37.99
2022-08-26T20:51:51.514Z,37.83
2022-08-26T20:54:19.864Z,38.01
2022-08-26T20:56:47.715Z,37.91
2022-08-26T20:59:15.132Z,37.90
2022-08-26T21:01:42.903Z,37.75
2022-08-26T21:04:12.144Z,37.88
2022-08-26T21:06:40.044Z,37.64
2022-08-26T21:09:10.960Z,37.50
2022-08-26T21:11:38.842Z,37.51
2022-08-26T21:14:16.766Z,37.86
2022-08-26T21:16:46.052Z,37.85
2022-08-26T21:19:15.299Z,37.69
2022-08-26T21:21:42.876Z,37.84
2022-08-26T21:24:10.756Z,37.54
2022-08-26T21:26:38.304Z,37.56
2022-08-26T21:29:06.841Z,37.34
2022-08-26T21:31:42.240Z,37.32
2022-08-26T21:34:13.397Z,37.48
2022-08-26T21:36:40.767Z,37.54
2022-08-26T21:39:11.756Z,37.71
2022-08-26T21:41:40.546Z,37.74
2022-08-26T21:44:07.934Z,37.85
2022-08-26T21:46:37.371Z,37.73
2022-08-26T21:49:07.564Z,37.57
2022-08-26T21:51:36.248Z,37.48
2022-08-26T21:54:09.983Z,37.69
2022-08-26T21:56:40.818Z,37.92
2022-08-26T21:59:08.489Z,37.57
2022-08-26T22:01:36.242Z,37.60
2022-08-26T22:04:04.719Z,37.55
2022-08-26T22:06:33.442Z,37.56
2022-08-26T22:09:01.260Z,37.41
2022-08-26T22:11:28.745Z,37.36
2022-08-26T22:13:57.034Z,37.56
2022-08-26T22:16:24.771Z,37.62
2022-08-26T22:18:53.665Z,37.53
2022-08-26T22:21:24.348Z,37.42
2022-08-26T22:23:51.713Z,37.29
2022-08-26T22:26:25.628Z,37.41
2022-08-26T22:28:58.426Z,37.21
2022-08-26T22:31:28.073Z,37.35
2022-08-26T22:34:10.318Z,37.28
2022-08-26T22:36:43.079Z,37.24
2022-08-26T22:39:15.381Z,37.44
2022-08-26T22:41:43.803Z,37.33
2022-08-26T22:44:12.021Z,37.33
2022-08-26T22:46:40.122Z,37.52
2022-08-26T22:49:08.970Z,37.38
2022-08-26T22:51:36.523Z,37.65
2022-08-26T22:54:04.152Z,37.48
2022-08-26T22:56:31.515Z,37.74
2022-08-26T22:58:58.843Z,37.54
2022-08-26T23:01:26.456Z,37.72
2022-08-26T23:03:53.906Z,37.70
2022-08-26T23:06:21.325Z,37.76
2022-08-26T23:08:49.541Z,37.60
2022-08-26T23:11:17.565Z,37.64
2022-08-26T23:13:44.881Z,37.84
2022-08-26T23:16:12.798Z,37.74
2022-08-26T23:18:40.932Z,37.58
2022-08-26T23:21:09.361Z,37.49
2022-08-26T23:23:38.105Z,37.49
2022-08-26T23:26:06.596Z,37.65
2022-08-26T23:28:34.931Z,37.60
2022-08-26T23:31:02.409Z,37.62
2022-08-26T23:33:49.709Z,37.64
2022-08-26T23:36:18.484Z,37.44
2022-08-26T23:38:52.755Z,37.40
2022-08-26T23:41:24.236Z,37.38
2022-08-26T23:43:52.101Z,37.24
2022-08-26T23:46:19.864Z,37.25
2022-08-26T23:48:48.000Z,37.21
2022-08-26T23:51:34.081Z,36.87
2022-08-26T23:54:01.565Z,37.20
2022-08-26T23:56:29.281Z,37.10
2022-08-26T23:58:56.774Z,37.11
